Yellowstone Regional Airport Cody US
ICAO: KCOD
IATA: COD
Category: Medium
Scheduled Services: No

Elevation: 5102 ft
TransAlt. 18000 ft.

Airport Communications:
AWOS 3:135.075
SALT LAKE CITY CNTR:133.25
CASPER RDO:122.3
CTAF/UNICOM:122.8

KCOD Zoom In..

If you have problems with the map follow the link
https://www.worldairports.se/pages/airport.php?
ICAO=KCOD

Runways:

(A) RW 04 length 8268 ft width 100 ft
---- / hdg 38

(B) RW 22 length 8268 ft width 100 ft
---- / hdg 218

Location; KCOD
Day. 16 / Time. 11.56 Zulu
* Altimeter: 29.91
* Temperature: 08° c. 46.4°f.
* Wind from: 290° Speed 11 kn with Gusts up to 19 kn.
Dewpoint: -06° c.
Visibility: 10 Statute Miles.
Clouds: Clear (automated report).

KCOD 161156Z AUTO 29011G19KT 10SM CLR 08/M06 A2991 RMK AO2 SLP126 T00781061 10094 20078 56003


Wind From 290°
Speed 11 kn.

 
 
jpsmedia.com for Web Design worldairports.se 2018   terms of use